Amazonia, Missouri
Current Conditions -  °F | °C
As of 8:53 AM on Monday 22 Dec 2014 (Local Time) from KSTJ Reporting Station
Light Rain Light Rain  
Wind Chill: 38°   Ceiling: 600
Heat Index: 42°   Visibility: 4mi
Dew Point: 41°   Wind: 7mph
Humidity: 96%   Direction: 150°SSE
Pressure: 29.58"   Gusts: NA
Location:  39.89°N, 94.89°W
Report Text: KSTJ 221453Z 15006KT 4SM -RA BR OVC006 06/05 A2958 RMK AO2 SLP018 P0001 60005 T00560050 58011
Loading
Personal Weather Stations






























Interactive Weather Map New forecast layout! Learn more

10-Day Weather Forecast

Advertisements
Track Severe Weather on mobile